createdAt,value
2022-09-10T00:02:19.964Z,18.25
2022-09-10T00:04:47.556Z,8.52
2022-09-10T00:07:15.317Z,11.20
2022-09-10T00:09:42.871Z,16.17
2022-09-10T00:12:11.045Z,12.85
2022-09-10T00:14:39.097Z,10.25
2022-09-10T00:17:07.617Z,12.60
2022-09-10T00:19:35.202Z,8.40
2022-09-10T00:22:02.926Z,6.93
2022-09-10T00:24:30.470Z,10.70
2022-09-10T00:26:59.683Z,9.10
2022-09-10T00:29:27.916Z,11.23
2022-09-10T00:31:55.490Z,9.27
2022-09-10T00:34:23.119Z,9.77
2022-09-10T00:36:50.768Z,9.10
2022-09-10T00:39:19.031Z,12.60
2022-09-10T00:41:48.311Z,9.32
2022-09-10T00:44:41.843Z,12.55
2022-09-10T00:47:27.612Z,10.35
2022-09-10T00:50:01.936Z,13.35
2022-09-10T00:52:29.629Z,8.13
2022-09-10T00:54:57.404Z,12.20
2022-09-10T00:57:25.473Z,9.27
2022-09-10T00:59:56.664Z,11.45
2022-09-10T01:02:24.409Z,11.43
2022-09-10T01:04:52.302Z,8.75
2022-09-10T01:07:21.660Z,6.72
2022-09-10T01:09:49.648Z,8.60
2022-09-10T01:12:23.135Z,9.48
2022-09-10T01:14:59.312Z,8.13
2022-09-10T01:17:42.126Z,10.02
2022-09-10T01:20:29.104Z,8.45
2022-09-10T01:22:59.604Z,6.78
2022-09-10T01:25:59.363Z,5.57
2022-09-10T01:28:31.337Z,9.98
2022-09-10T01:31:03.314Z,9.75
2022-09-10T01:33:38.030Z,8.40
2022-09-10T01:38:35.868Z,7.40
2022-09-10T01:41:05.820Z,7.28
2022-09-10T01:43:42.049Z,11.55
2022-09-10T01:46:15.662Z,6.05
2022-09-10T01:49:04.033Z,10.45
2022-09-10T01:51:42.939Z,8.55
2022-09-10T01:54:29.365Z,9.18
2022-09-10T01:57:20.688Z,9.13
2022-09-10T01:59:55.945Z,6.38
2022-09-10T02:02:26.835Z,5.38
2022-09-10T02:04:55.062Z,4.40
2022-09-10T02:07:24.305Z,7.65
2022-09-10T02:09:53.246Z,8.85
2022-09-10T02:12:22.664Z,7.55
2022-09-10T02:15:03.596Z,5.68
2022-09-10T02:17:57.345Z,6.32
2022-09-10T02:20:25.199Z,8.65
2022-09-10T02:22:54.929Z,6.80
2022-09-10T02:25:23.883Z,5.40
2022-09-10T02:27:56.604Z,8.60
2022-09-10T02:30:24.831Z,7.72
2022-09-10T02:32:52.752Z,8.27
2022-09-10T02:35:21.857Z,9.48
2022-09-10T02:37:50.650Z,12.98
2022-09-10T02:40:19.550Z,9.57
2022-09-10T02:42:47.369Z,6.18
2022-09-10T02:45:19.394Z,5.07
2022-09-10T02:47:47.614Z,6.13
2022-09-10T02:50:16.590Z,7.43
2022-09-10T02:52:51.319Z,7.82
2022-09-10T02:55:19.012Z,9.50
2022-09-10T02:57:47.431Z,10.05
2022-09-10T03:00:15.189Z,10.43
2022-09-10T03:02:42.812Z,9.25
2022-09-10T03:05:13.316Z,12.20
2022-09-10T03:07:40.890Z,15.52
2022-09-10T03:10:08.984Z,16.88
2022-09-10T03:12:36.774Z,15.05
2022-09-10T03:15:04.913Z,14.38
2022-09-10T03:17:32.894Z,12.77
2022-09-10T03:20:00.577Z,6.85
2022-09-10T03:22:28.518Z,12.52
2022-09-10T03:24:56.326Z,13.93
2022-09-10T03:27:25.371Z,16.08
2022-09-10T03:29:54.811Z,10.13
2022-09-10T03:32:24.631Z,10.60
2022-09-10T03:34:52.338Z,10.68
2022-09-10T03:37:19.864Z,7.13
2022-09-10T03:39:48.195Z,6.22
2022-09-10T03:42:16.863Z,7.38
2022-09-10T03:44:44.609Z,7.95
2022-09-10T03:47:13.061Z,6.68
2022-09-10T03:49:40.716Z,10.90
2022-09-10T03:52:12.598Z,6.53
2022-09-10T03:54:41.971Z,9.27
2022-09-10T03:57:09.663Z,5.28
2022-09-10T03:59:41.149Z,8.07
2022-09-10T04:02:10.857Z,5.85
2022-09-10T04:04:38.524Z,6.80
2022-09-10T04:07:06.052Z,7.88
2022-09-10T04:09:34.828Z,9.18
2022-09-10T04:12:03.722Z,9.05
2022-09-10T04:14:33.302Z,9.13
2022-09-10T04:17:02.283Z,8.70
2022-09-10T04:19:31.390Z,7.70
2022-09-10T04:21:59.045Z,7.68
2022-09-10T04:24:26.671Z,9.27
2022-09-10T04:26:54.292Z,9.20
2022-09-10T04:29:23.381Z,6.25
2022-09-10T04:31:51.372Z,9.55
2022-09-10T04:34:20.076Z,4.68
2022-09-10T04:36:47.676Z,6.97
2022-09-10T04:39:15.318Z,8.32
2022-09-10T04:41:43.348Z,4.07
2022-09-10T04:44:10.970Z,8.90
2022-09-10T04:46:38.622Z,7.75
2022-09-10T04:49:11.080Z,4.15
2022-09-10T04:51:38.653Z,5.22
2022-09-10T04:54:06.273Z,6.80
2022-09-10T04:56:37.039Z,4.85
2022-09-10T04:59:05.617Z,4.22
2022-09-10T05:01:37.285Z,6.88
2022-09-10T05:04:05.323Z,6.40
2022-09-10T05:06:36.291Z,7.20
2022-09-10T05:09:05.497Z,6.03
2022-09-10T05:11:34.152Z,8.80
2022-09-10T05:14:01.671Z,8.82
2022-09-10T05:16:31.689Z,7.85
2022-09-10T05:18:59.286Z,5.05
2022-09-10T05:21:29.293Z,7.63
2022-09-10T05:23:57.061Z,4.03
2022-09-10T05:26:25.811Z,7.47
2022-09-10T05:28:55.819Z,6.53
2022-09-10T05:31:23.495Z,9.50
2022-09-10T05:33:51.003Z,7.28
2022-09-10T05:36:18.673Z,12.60
2022-09-10T05:38:46.607Z,8.88
2022-09-10T05:41:15.943Z,9.00
2022-09-10T05:43:46.836Z,8.30
2022-09-10T05:46:14.380Z,10.50
2022-09-10T05:48:46.103Z,8.77
2022-09-10T05:51:14.545Z,8.05
2022-09-10T05:53:43.859Z,6.82
2022-09-10T05:56:12.804Z,11.85
2022-09-10T05:58:41.832Z,5.88
2022-09-10T06:01:11.222Z,7.78
2022-09-10T06:03:40.491Z,9.27
2022-09-10T06:06:08.428Z,7.63
2022-09-10T06:08:37.825Z,7.85
2022-09-10T06:11:12.094Z,7.57
2022-09-10T06:13:44.395Z,12.68
2022-09-10T06:16:13.040Z,10.30
2022-09-10T06:18:42.483Z,8.73
2022-09-10T06:21:12.284Z,11.10
2022-09-10T06:23:41.205Z,11.95
2022-09-10T06:26:18.715Z,10.63
2022-09-10T06:28:49.915Z,10.27
2022-09-10T06:31:19.822Z,9.43
2022-09-10T06:33:51.566Z,8.85
2022-09-10T06:36:22.108Z,9.68
2022-09-10T06:38:51.227Z,8.88
2022-09-10T06:41:19.563Z,10.63
2022-09-10T06:44:02.722Z,13.77
2022-09-10T06:49:31.467Z,9.13
2022-09-10T06:51:59.270Z,8.60
2022-09-10T06:54:27.611Z,10.82
2022-09-10T06:56:59.163Z,10.05
2022-09-10T06:59:26.623Z,9.45
2022-09-10T07:01:55.424Z,12.20
2022-09-10T07:04:23.291Z,11.02
2022-09-10T07:06:51.530Z,9.70
2022-09-10T07:09:19.070Z,7.78
2022-09-10T07:11:57.603Z,6.80
2022-09-10T07:14:25.665Z,7.45
2022-09-10T07:16:54.331Z,8.93
2022-09-10T07:19:24.604Z,9.02
2022-09-10T07:21:52.245Z,7.40
2022-09-10T07:24:21.427Z,8.60
2022-09-10T07:27:00.245Z,9.45
2022-09-10T07:29:30.320Z,8.00
2022-09-10T07:31:58.622Z,9.45
2022-09-10T07:34:26.886Z,9.48
2022-09-10T07:36:56.714Z,11.85
2022-09-10T07:39:25.853Z,8.90
2022-09-10T07:41:56.209Z,11.85
2022-09-10T07:44:27.695Z,10.73
2022-09-10T07:46:59.499Z,9.15
2022-09-10T07:49:27.897Z,5.38
2022-09-10T07:51:59.773Z,5.80
2022-09-10T07:54:32.347Z,5.65
2022-09-10T07:57:01.095Z,6.15
2022-09-10T07:59:28.812Z,5.82
2022-09-10T08:02:02.876Z,9.33
2022-09-10T08:04:36.591Z,8.20
2022-09-10T08:07:06.773Z,10.45
2022-09-10T08:09:36.876Z,10.93
2022-09-10T08:12:07.670Z,8.93
2022-09-10T08:14:38.073Z,6.90
2022-09-10T08:17:05.940Z,11.27
2022-09-10T08:19:39.535Z,14.23
2022-09-10T08:22:12.692Z,16.73
2022-09-10T08:24:47.089Z,11.88
2022-09-10T08:27:16.101Z,10.82
2022-09-10T08:29:44.518Z,15.43
2022-09-10T08:32:13.367Z,10.30
2022-09-10T08:34:42.016Z,10.68
2022-09-10T08:37:12.445Z,9.48
2022-09-10T08:39:40.653Z,9.70
2022-09-10T08:42:09.320Z,10.73
2022-09-10T08:44:47.770Z,12.05
2022-09-10T08:47:20.973Z,9.18
2022-09-10T08:49:53.638Z,14.57
2022-09-10T08:52:24.854Z,12.30
2022-09-10T08:55:10.750Z,9.95
2022-09-10T08:57:48.126Z,9.05
2022-09-10T09:00:18.396Z,12.32
2022-09-10T09:02:58.070Z,15.77
2022-09-10T09:05:28.258Z,14.07
2022-09-10T09:07:59.603Z,10.27
2022-09-10T09:10:50.766Z,9.02
2022-09-10T09:13:37.188Z,12.35
2022-09-10T09:16:14.373Z,13.95
2022-09-10T09:19:22.599Z,12.13
2022-09-10T09:21:56.799Z,11.23
2022-09-10T09:24:48.341Z,12.68
2022-09-10T09:27:17.350Z,9.70
2022-09-10T09:29:56.508Z,11.15
2022-09-10T09:32:24.983Z,9.85
2022-09-10T09:34:54.424Z,11.18
2022-09-10T09:37:30.240Z,12.00
2022-09-10T09:40:12.558Z,12.18
2022-09-10T09:42:44.140Z,12.95
2022-09-10T09:45:24.282Z,15.35
2022-09-10T09:47:54.542Z,15.75
2022-09-10T09:50:23.064Z,15.32
2022-09-10T09:52:54.166Z,10.75
2022-09-10T09:55:41.404Z,11.27
2022-09-10T09:58:29.466Z,12.32
2022-09-10T10:01:05.894Z,13.85
2022-09-10T10:03:48.336Z,11.27
2022-09-10T10:06:17.115Z,8.55
2022-09-10T10:08:56.308Z,8.75
2022-09-10T10:11:38.449Z,12.63
2022-09-10T10:14:20.926Z,6.32
2022-09-10T10:16:49.361Z,8.35
2022-09-10T10:19:36.722Z,12.73
2022-09-10T10:22:20.781Z,10.52
2022-09-10T10:24:49.645Z,7.77
2022-09-10T10:27:37.666Z,7.57
2022-09-10T10:30:07.404Z,7.72
2022-09-10T10:32:45.011Z,11.43
2022-09-10T10:35:19.252Z,14.70
2022-09-10T10:38:03.789Z,11.00
2022-09-10T10:40:36.903Z,11.00
2022-09-10T10:43:20.653Z,8.65
2022-09-10T10:45:54.084Z,10.35
2022-09-10T10:48:28.519Z,15.15
2022-09-10T10:53:25.573Z,9.95
2022-09-10T10:56:07.506Z,11.73
2022-09-10T10:58:49.162Z,10.40
2022-09-10T11:01:19.195Z,8.13
2022-09-10T11:04:06.509Z,10.32
2022-09-10T11:06:38.134Z,13.02
2022-09-10T11:09:09.275Z,13.05
2022-09-10T11:11:37.046Z,14.93
2022-09-10T11:14:20.229Z,11.82
2022-09-10T11:16:55.349Z,11.45
2022-09-10T11:19:31.302Z,13.95
2022-09-10T11:22:01.914Z,12.68
2022-09-10T11:24:41.293Z,14.52
2022-09-10T11:27:20.860Z,9.48
2022-09-10T11:29:58.447Z,14.85
2022-09-10T11:32:27.032Z,6.25
2022-09-10T11:35:12.216Z,6.63
2022-09-10T11:37:46.375Z,10.15
2022-09-10T11:40:17.432Z,8.20
2022-09-10T11:42:47.571Z,9.45
2022-09-10T11:45:28.727Z,7.70
2022-09-10T11:48:00.326Z,8.98
2022-09-10T11:50:34.879Z,14.63
2022-09-10T11:53:07.372Z,9.77
2022-09-10T11:55:53.786Z,8.23
2022-09-10T11:58:26.918Z,7.25
2022-09-10T12:01:05.958Z,8.65
2022-09-10T12:03:48.837Z,15.25
2022-09-10T12:06:27.420Z,7.90
2022-09-10T12:09:01.090Z,7.03
2022-09-10T12:11:58.107Z,5.43
2022-09-10T12:14:25.882Z,8.95
2022-09-10T12:16:55.867Z,15.18
2022-09-10T12:19:23.443Z,11.68
2022-09-10T12:21:53.906Z,10.15
2022-09-10T12:24:36.227Z,11.55
2022-09-10T12:27:05.454Z,5.93
2022-09-10T12:29:37.238Z,7.35
2022-09-10T12:32:17.209Z,8.23
2022-09-10T12:34:48.443Z,7.40
2022-09-10T12:37:21.357Z,8.02
2022-09-10T12:39:49.679Z,9.98
2022-09-10T12:42:33.302Z,8.80
2022-09-10T12:45:01.322Z,7.32
2022-09-10T12:47:34.428Z,6.75
2022-09-10T12:50:04.165Z,6.47
2022-09-10T12:52:43.913Z,5.55
2022-09-10T12:55:11.828Z,4.32
2022-09-10T12:57:39.359Z,4.88
2022-09-10T13:00:07.285Z,5.85
2022-09-10T13:02:37.188Z,8.57
2022-09-10T13:05:20.213Z,6.18
2022-09-10T13:07:51.635Z,7.97
2022-09-10T13:10:22.843Z,4.28
2022-09-10T13:12:57.766Z,5.93
2022-09-10T13:15:26.862Z,6.57
2022-09-10T13:17:54.545Z,6.65
2022-09-10T13:20:22.324Z,6.55
2022-09-10T13:23:08.603Z,3.92
2022-09-10T13:25:42.845Z,3.45
2022-09-10T13:28:29.003Z,4.15
2022-09-10T13:31:05.828Z,3.58
2022-09-10T13:33:34.898Z,3.67
2022-09-10T13:36:05.735Z,4.13
2022-09-10T13:38:33.338Z,3.92
2022-09-10T13:41:04.326Z,4.05
2022-09-10T13:43:31.826Z,6.13
2022-09-10T13:46:01.109Z,2.42
2022-09-10T13:48:43.310Z,2.92
2022-09-10T13:51:25.996Z,3.28
2022-09-10T13:53:54.246Z,2.90
2022-09-10T13:56:27.514Z,4.38
2022-09-10T13:59:03.136Z,5.05
2022-09-10T14:01:56.851Z,3.63
2022-09-10T14:04:26.428Z,3.22
2022-09-10T14:07:07.456Z,4.93
2022-09-10T14:09:35.222Z,4.65
2022-09-10T14:12:04.712Z,2.85
2022-09-10T14:14:36.035Z,3.67
2022-09-10T14:17:05.468Z,4.50
2022-09-10T14:19:41.413Z,2.88
2022-09-10T14:22:13.754Z,4.38
2022-09-10T14:24:41.444Z,2.97
2022-09-10T14:27:16.623Z,3.35
2022-09-10T14:29:44.245Z,2.60
2022-09-10T14:32:18.480Z,3.67
2022-09-10T14:34:47.875Z,4.25
2022-09-10T14:37:26.749Z,5.90
2022-09-10T14:39:54.345Z,6.03
2022-09-10T14:42:29.411Z,3.60
2022-09-10T14:44:57.175Z,2.35
2022-09-10T14:47:35.804Z,6.95
2022-09-10T14:50:26.060Z,2.90
2022-09-10T14:52:53.642Z,3.63
2022-09-10T14:55:24.139Z,3.65
2022-09-10T14:57:55.887Z,5.32
2022-09-10T15:00:24.144Z,2.75
2022-09-10T15:02:52.599Z,3.35
2022-09-10T15:05:20.653Z,2.38
2022-09-10T15:07:48.266Z,3.90
2022-09-10T15:10:17.080Z,4.72
2022-09-10T15:12:47.018Z,4.15
2022-09-10T15:15:17.496Z,6.35
2022-09-10T15:17:45.290Z,4.38
2022-09-10T15:20:17.207Z,4.00
2022-09-10T15:22:45.273Z,4.07
2022-09-10T15:25:25.439Z,4.55
2022-09-10T15:27:53.020Z,3.65
2022-09-10T15:30:20.477Z,3.58
2022-09-10T15:32:48.199Z,3.92
2022-09-10T15:35:15.461Z,3.85
2022-09-10T15:37:42.548Z,6.38
2022-09-10T15:40:10.250Z,5.05
2022-09-10T15:42:37.472Z,6.55
2022-09-10T15:45:04.903Z,6.40
2022-09-10T15:47:33.757Z,2.97
2022-09-10T15:50:00.899Z,5.25
2022-09-10T15:52:28.142Z,5.05
2022-09-10T15:54:55.308Z,2.58
2022-09-10T15:57:22.432Z,3.45
2022-09-10T15:59:49.590Z,4.07
2022-09-10T16:02:18.499Z,5.60
2022-09-10T16:04:45.754Z,4.35
2022-09-10T16:07:13.786Z,3.97
2022-09-10T16:09:42.423Z,3.38
2022-09-10T16:12:10.110Z,6.93
2022-09-10T16:14:37.339Z,3.90
2022-09-10T16:17:10.395Z,6.90
2022-09-10T16:19:38.070Z,5.50
2022-09-10T16:22:08.189Z,4.22
2022-09-10T16:24:35.409Z,3.30
2022-09-10T16:27:02.779Z,2.90
2022-09-10T16:29:29.949Z,3.22
2022-09-10T16:31:57.372Z,2.63
2022-09-10T16:34:24.530Z,4.40
2022-09-10T16:36:51.878Z,2.50
2022-09-10T16:39:19.864Z,4.70
2022-09-10T16:41:48.708Z,4.38
2022-09-10T16:44:17.763Z,4.75
2022-09-10T16:46:46.266Z,2.63
2022-09-10T16:49:15.128Z,2.83
2022-09-10T16:51:43.849Z,2.97
2022-09-10T16:54:11.744Z,4.00
2022-09-10T16:56:42.206Z,5.80
2022-09-10T16:59:20.535Z,3.83
2022-09-10T17:01:49.233Z,2.13
2022-09-10T17:04:27.569Z,3.30
2022-09-10T17:06:59.103Z,4.63
2022-09-10T17:09:26.478Z,3.90
2022-09-10T17:11:54.569Z,2.72
2022-09-10T17:14:21.806Z,3.88
2022-09-10T17:16:49.944Z,3.03
2022-09-10T17:19:26.502Z,3.97
2022-09-10T17:21:55.690Z,4.22
2022-09-10T17:24:27.093Z,3.80
2022-09-10T17:26:55.338Z,4.75
2022-09-10T17:29:24.878Z,3.28
2022-09-10T17:31:52.357Z,3.83
2022-09-10T17:34:21.511Z,3.78
2022-09-10T17:36:49.116Z,5.00
2022-09-10T17:39:17.106Z,4.05
2022-09-10T17:41:44.488Z,3.70
2022-09-10T17:44:13.391Z,3.15
2022-09-10T17:46:42.813Z,2.83
2022-09-10T17:49:13.578Z,2.95
2022-09-10T17:51:42.040Z,4.50
2022-09-10T17:54:09.456Z,2.13
2022-09-10T17:56:38.106Z,3.20
2022-09-10T17:59:05.918Z,4.90
2022-09-10T18:01:37.766Z,5.60
2022-09-10T18:04:06.475Z,2.95
2022-09-10T18:06:35.850Z,3.95
2022-09-10T18:09:03.934Z,3.58
2022-09-10T18:11:34.438Z,3.17
2022-09-10T18:14:01.838Z,2.75
2022-09-10T18:16:32.074Z,4.35
2022-09-10T18:19:01.617Z,4.68
2022-09-10T18:21:38.233Z,5.68
2022-09-10T18:24:07.338Z,3.92
2022-09-10T18:26:37.196Z,2.70
2022-09-10T18:29:06.535Z,2.80
2022-09-10T18:31:35.737Z,3.67
2022-09-10T18:34:03.774Z,4.82
2022-09-10T18:36:31.607Z,4.53
2022-09-10T18:39:02.372Z,3.00
2022-09-10T18:41:31.399Z,4.00
2022-09-10T18:44:00.740Z,3.70
2022-09-10T18:46:31.400Z,3.80
2022-09-10T18:48:59.488Z,3.45
2022-09-10T18:51:27.788Z,2.22
2022-09-10T18:53:56.875Z,2.95
2022-09-10T18:56:25.688Z,4.00
2022-09-10T18:58:58.570Z,3.53
2022-09-10T19:01:27.428Z,3.42
2022-09-10T19:03:57.576Z,3.70
2022-09-10T19:06:29.524Z,4.63
2022-09-10T19:08:57.832Z,4.30
2022-09-10T19:11:26.452Z,3.00
2022-09-10T19:13:55.472Z,3.88
2022-09-10T19:16:25.060Z,2.90
2022-09-10T19:18:53.722Z,3.03
2022-09-10T19:21:22.102Z,4.43
2022-09-10T19:23:50.541Z,4.70
2022-09-10T19:26:19.011Z,4.65
2022-09-10T19:28:47.893Z,7.57
2022-09-10T19:31:16.910Z,2.47
2022-09-10T19:33:44.549Z,2.78
2022-09-10T19:36:13.791Z,3.30
2022-09-10T19:38:42.283Z,4.07
2022-09-10T19:41:12.186Z,3.05
2022-09-10T19:43:40.302Z,4.40
2022-09-10T19:46:10.631Z,3.28
2022-09-10T19:48:38.826Z,5.78
2022-09-10T19:51:07.006Z,2.80
2022-09-10T19:53:35.351Z,4.07
2022-09-10T19:56:18.270Z,4.10
2022-09-10T20:01:18.988Z,3.95
2022-09-10T20:03:47.149Z,4.97
2022-09-10T20:06:16.785Z,4.72
2022-09-10T20:08:44.614Z,4.15
2022-09-10T20:11:16.722Z,4.78
2022-09-10T20:13:45.360Z,3.00
2022-09-10T20:16:13.378Z,5.60
2022-09-10T20:18:41.437Z,5.10
2022-09-10T20:21:11.804Z,4.70
2022-09-10T20:23:40.070Z,4.85
2022-09-10T20:26:09.170Z,3.60
2022-09-10T20:28:37.671Z,5.45
2022-09-10T20:31:09.016Z,4.82
2022-09-10T20:33:42.270Z,3.88
2022-09-10T20:36:11.806Z,5.68
2022-09-10T20:38:39.567Z,2.60
2022-09-10T20:41:08.009Z,4.22
2022-09-10T20:43:35.525Z,3.53
2022-09-10T20:46:03.269Z,14.20
2022-09-10T20:48:31.924Z,6.95
2022-09-10T20:51:00.201Z,3.95
2022-09-10T20:53:28.340Z,3.40
2022-09-10T20:56:06.390Z,4.55
2022-09-10T20:58:36.647Z,4.43
2022-09-10T21:01:07.430Z,4.32
2022-09-10T21:03:35.112Z,4.68
2022-09-10T21:06:02.692Z,5.88
2022-09-10T21:08:31.666Z,4.18
2022-09-10T21:11:03.078Z,4.50
2022-09-10T21:13:30.627Z,4.97
2022-09-10T21:16:05.067Z,8.88
2022-09-10T21:18:33.435Z,3.50
2022-09-10T21:21:10.838Z,3.33
2022-09-10T21:23:45.675Z,4.82
2022-09-10T21:26:14.107Z,8.10
2022-09-10T21:28:42.222Z,10.35
2022-09-10T21:31:10.203Z,5.60
2022-09-10T21:33:37.925Z,7.07
2022-09-10T21:36:06.839Z,8.43
2022-09-10T21:38:35.165Z,7.32
2022-09-10T21:41:03.746Z,4.68
2022-09-10T21:43:35.395Z,6.68
2022-09-10T21:46:03.671Z,6.78
2022-09-10T21:48:31.911Z,5.05
2022-09-10T21:51:09.084Z,5.47
2022-09-10T21:53:36.679Z,8.63
2022-09-10T21:56:04.647Z,4.82
2022-09-10T21:58:33.725Z,5.63
2022-09-10T22:01:01.582Z,4.72
2022-09-10T22:03:31.128Z,5.40
2022-09-10T22:06:24.834Z,4.82
2022-09-10T22:08:53.450Z,5.65
2022-09-10T22:11:23.951Z,4.22
2022-09-10T22:13:53.234Z,7.50
2022-09-10T22:16:22.694Z,6.50
2022-09-10T22:18:50.558Z,8.57
2022-09-10T22:21:18.540Z,6.50
2022-09-10T22:23:46.032Z,8.55
2022-09-10T22:26:17.353Z,10.80
2022-09-10T22:28:44.899Z,6.85
2022-09-10T22:31:15.940Z,9.23
2022-09-10T22:33:45.022Z,10.43
2022-09-10T22:36:16.863Z,8.57
2022-09-10T22:38:44.391Z,8.13
2022-09-10T22:41:14.406Z,9.52
2022-09-10T22:43:43.053Z,8.93
2022-09-10T22:46:11.144Z,9.43
2022-09-10T22:48:39.587Z,7.00
2022-09-10T22:51:07.987Z,6.60
2022-09-10T22:53:35.620Z,7.60
2022-09-10T22:56:03.293Z,10.30
2022-09-10T22:58:31.364Z,8.35
2022-09-10T23:01:09.399Z,7.68
2022-09-10T23:03:37.490Z,6.50
2022-09-10T23:06:09.627Z,6.25
2022-09-10T23:08:37.318Z,7.18
2022-09-10T23:11:37.502Z,7.20
2022-09-10T23:14:06.539Z,8.52
2022-09-10T23:16:34.483Z,8.27
2022-09-10T23:19:03.966Z,10.82
2022-09-10T23:21:32.599Z,8.88
2022-09-10T23:24:01.527Z,8.75
2022-09-10T23:26:29.526Z,7.75
2022-09-10T23:28:59.427Z,8.20
2022-09-10T23:31:32.540Z,13.32
2022-09-10T23:34:01.457Z,10.60
2022-09-10T23:36:31.282Z,10.90
2022-09-10T23:38:59.528Z,11.57
2022-09-10T23:41:27.097Z,10.85
2022-09-10T23:43:54.938Z,10.95
2022-09-10T23:46:22.553Z,10.88
2022-09-10T23:48:50.107Z,9.38
2022-09-10T23:51:19.994Z,9.23
2022-09-10T23:53:48.091Z,13.15
2022-09-10T23:56:20.119Z,8.60
2022-09-10T23:58:47.988Z,8.65
